Time,TemperatureF,DewpointF,PressureIn,WindDirection,WindDirectionDegrees,WindSpeedMPH,WindSpeedGustMPH,Humidity,HourlyPrecipIn,Conditions,Clouds,dailyrainin,SoftwareType,DateUTC
2013-07-25 00:02:00,72.0,68.0,-100.00,South,190,4.0,4.0,86,0.00,,,-99.99,,2013-07-25 05:02:00,
2013-07-25 00:12:00,71.0,67.0,-100.00,SSW,205,3.0,4.0,87,0.00,,,-99.99,,2013-07-25 05:12:00,
2013-07-25 00:22:00,71.0,67.0,-100.00,South,185,3.0,4.0,87,0.00,,,-99.99,,2013-07-25 05:22:00,
2013-07-25 00:32:00,71.0,67.0,-100.00,SSW,205,3.0,4.0,88,0.00,,,-99.99,,2013-07-25 05:32:00,
2013-07-25 00:43:00,70.0,67.0,-100.00,SSW,210,3.0,4.0,89,0.00,,,-99.99,,2013-07-25 05:43:00,
2013-07-25 00:52:00,71.0,67.0,-100.00,South,175,4.0,4.0,89,0.00,,,-99.99,,2013-07-25 05:52:00,
2013-07-25 01:02:00,71.0,68.0,-100.00,SSW,195,3.0,4.0,90,0.00,,,-99.99,,2013-07-25 06:02:00,
2013-07-25 01:12:00,70.0,67.0,-100.00,SSW,195,4.0,6.0,90,0.00,,,-99.99,,2013-07-25 06:12:00,
2013-07-25 01:22:00,70.0,67.0,-100.00,South,180,2.0,5.0,91,0.00,,,-99.99,,2013-07-25 06:22:00,
2013-07-25 01:32:00,70.0,68.0,-100.00,SSE,165,3.0,4.0,91,0.00,,,-99.99,,2013-07-25 06:32:00,
2013-07-25 01:42:00,70.0,68.0,-100.00,South,175,6.0,7.0,92,0.00,,,-99.99,,2013-07-25 06:42:00,
2013-07-25 01:52:00,69.0,67.0,-100.00,South,180,7.0,9.0,92,0.00,,,-99.99,,2013-07-25 06:52:00,
2013-07-25 02:02:00,69.0,67.0,-100.00,South,180,6.0,8.0,93,0.00,,,-99.99,,2013-07-25 07:02:00,
2013-07-25 02:12:00,69.0,67.0,-100.00,SSE,160,6.0,8.0,93,0.00,,,-99.99,,2013-07-25 07:12:00,
2013-07-25 02:22:00,69.0,67.0,-100.00,SSE,155,6.0,9.0,92,0.00,,,-99.99,,2013-07-25 07:22:00,
2013-07-25 02:32:00,69.0,67.0,-100.00,SSE,165,6.0,9.0,91,0.00,,,-99.99,,2013-07-25 07:32:00,
2013-07-25 02:43:00,69.0,67.0,-100.00,South,175,7.0,9.0,91,0.00,,,-99.99,,2013-07-25 07:43:00,
2013-07-25 02:53:00,69.0,67.0,-100.00,South,180,6.0,10.0,91,0.00,,,-99.99,,2013-07-25 07:53:00,
2013-07-25 03:02:00,69.0,66.0,-100.00,South,175,6.0,9.0,91,0.00,,,-99.99,,2013-07-25 08:02:00,
2013-07-25 03:12:00,69.0,66.0,-100.00,South,170,6.0,8.0,91,0.00,,,-99.99,,2013-07-25 08:12:00,
2013-07-25 03:22:00,69.0,66.0,-100.00,South,170,6.0,10.0,91,0.00,,,-99.99,,2013-07-25 08:22:00,
2013-07-25 03:32:00,68.0,66.0,-100.00,South,180,7.0,9.0,91,0.00,,,-99.99,,2013-07-25 08:32:00,
2013-07-25 03:44:00,68.0,66.0,-100.00,South,175,7.0,9.0,92,0.00,,,-99.99,,2013-07-25 08:44:00,
2013-07-25 03:52:00,68.0,66.0,-100.00,South,180,6.0,9.0,91,0.00,,,-99.99,,2013-07-25 08:52:00,
2013-07-25 04:02:00,68.0,65.0,-100.00,South,185,7.0,9.0,92,0.00,,,-99.99,,2013-07-25 09:02:00,
2013-07-25 04:12:00,68.0,66.0,-100.00,South,190,6.0,10.0,93,0.00,,,-99.99,,2013-07-25 09:12:00,
2013-07-25 04:22:00,68.0,66.0,-100.00,South,180,7.0,9.0,93,0.00,,,-99.99,,2013-07-25 09:22:00,
2013-07-25 04:33:00,68.0,66.0,-100.00,South,190,6.0,9.0,92,0.00,,,-99.99,,2013-07-25 09:33:00,
2013-07-25 04:43:00,68.0,66.0,-100.00,South,180,5.0,7.0,92,0.00,,,-99.99,,2013-07-25 09:43:00,
2013-07-25 04:52:00,68.0,66.0,-100.00,South,190,6.0,7.0,92,0.00,,,-99.99,,2013-07-25 09:52:00,
2013-07-25 05:02:00,68.0,66.0,-100.00,SE,135,4.0,6.0,92,0.00,,,-99.99,,2013-07-25 10:02:00,
2013-07-25 05:12:00,67.0,65.0,-100.00,SSE,150,4.0,6.0,92,0.00,,,-99.99,,2013-07-25 10:12:00,
2013-07-25 05:22:00,68.0,65.0,-100.00,South,170,6.0,7.0,93,0.00,,,-99.99,,2013-07-25 10:22:00,
2013-07-25 05:32:00,67.0,65.0,-100.00,South,175,3.0,7.0,93,0.00,,,-99.99,,2013-07-25 10:32:00,
2013-07-25 05:42:00,68.0,66.0,-100.00,South,190,2.0,5.0,93,0.00,,,-99.99,,2013-07-25 10:42:00,
2013-07-25 05:53:00,68.0,66.0,-100.00,ESE,110,2.0,3.0,93,0.00,,,-99.99,,2013-07-25 10:53:00,
2013-07-25 06:02:00,67.0,65.0,-100.00,South,170,2.0,4.0,93,0.00,,,-99.99,,2013-07-25 11:02:00,
2013-07-25 06:12:00,67.0,65.0,-100.00,ESE,120,3.0,4.0,93,0.00,,,-99.99,,2013-07-25 11:12:00,
2013-07-25 06:22:00,67.0,65.0,-100.00,SSE,150,4.0,5.0,93,0.00,,,-99.99,,2013-07-25 11:22:00,
2013-07-25 06:32:00,67.0,65.0,-100.00,SSW,195,4.0,6.0,93,0.00,,,-99.99,,2013-07-25 11:32:00,
2013-07-25 06:43:00,67.0,65.0,-100.00,SSW,200,3.0,5.0,93,0.00,,,-99.99,,2013-07-25 11:43:00,
2013-07-25 06:52:00,67.0,65.0,-100.00,South,180,2.0,4.0,94,0.00,,,-99.99,,2013-07-25 11:52:00,
2013-07-25 07:02:00,67.0,66.0,-100.00,SE,145,4.0,6.0,94,0.00,,,-99.99,,2013-07-25 12:02:00,
2013-07-25 07:12:00,68.0,66.0,-100.00,SSE,165,2.0,6.0,94,0.00,,,-99.99,,2013-07-25 12:12:00,
2013-07-25 07:22:00,68.0,66.0,-100.00,SE,135,4.0,7.0,93,0.00,,,-99.99,,2013-07-25 12:22:00,
2013-07-25 07:32:00,67.0,66.0,-100.00,SSE,165,7.0,9.0,93,0.00,,,-99.99,,2013-07-25 12:32:00,
2013-07-25 07:45:00,68.0,65.0,-100.00,South,175,6.0,9.0,92,0.00,,,-99.99,,2013-07-25 12:45:00,
2013-07-25 07:53:00,69.0,65.0,-100.00,South,185,6.0,9.0,90,0.00,,,-99.99,,2013-07-25 12:53:00,
2013-07-25 08:12:00,69.0,65.0,-100.00,South,185,6.0,9.0,89,0.00,,,-99.99,,2013-07-25 13:12:00,
2013-07-25 08:22:00,69.0,66.0,-100.00,SSW,195,6.0,9.0,89,0.00,,,-99.99,,2013-07-25 13:22:00,
2013-07-25 08:42:00,69.0,66.0,-100.00,SSE,150,7.0,9.0,89,1.23,,,-99.99,,2013-07-25 13:42:00,
2013-07-25 08:52:00,68.0,66.0,-100.00,South,185,6.0,9.0,93,0.16,,,-99.99,,2013-07-25 13:52:00,
2013-07-25 09:02:00,69.0,67.0,-100.00,SSW,200,7.0,10.0,94,0.00,,,-99.99,,2013-07-25 14:02:00,
2013-07-25 09:12:00,69.0,68.0,-100.00,SSW,210,8.0,11.0,94,0.00,,,-99.99,,2013-07-25 14:12:00,
2013-07-25 09:33:00,71.0,69.0,-100.00,South,185,5.0,9.0,93,0.00,,,-99.99,,2013-07-25 14:33:00,
2013-07-25 09:43:00,72.0,69.0,-100.00,SSE,165,4.0,9.0,91,0.00,,,-99.99,,2013-07-25 14:43:00,
2013-07-25 09:53:00,73.0,69.0,-100.00,South,190,3.0,6.0,89,0.00,,,-99.99,,2013-07-25 14:53:00,
2013-07-25 10:02:00,73.0,69.0,-100.00,South,190,6.0,9.0,85,0.00,,,-99.99,,2013-07-25 15:02:00,
2013-07-25 10:12:00,74.0,68.0,-100.00,SSW,195,7.0,12.0,82,0.00,,,-99.99,,2013-07-25 15:12:00,
2013-07-25 10:22:00,74.0,67.0,-100.00,SSW,200,7.0,12.0,78,0.00,,,-99.99,,2013-07-25 15:22:00,
2013-07-25 10:32:00,75.0,68.0,-100.00,SW,225,5.0,12.0,77,0.00,,,-99.99,,2013-07-25 15:32:00,
2013-07-25 10:43:00,76.0,68.0,-100.00,SW,215,6.0,7.0,75,0.00,,,-99.99,,2013-07-25 15:43:00,
2013-07-25 11:02:00,76.0,67.0,-100.00,SSW,200,7.0,11.0,72,0.00,,,-99.99,,2013-07-25 16:02:00,
2013-07-25 11:12:00,76.0,67.0,-100.00,SW,220,6.0,11.0,72,0.00,,,-99.99,,2013-07-25 16:12:00,
2013-07-25 11:22:00,76.0,67.0,-100.00,SW,215,3.0,7.0,74,0.00,,,-99.99,,2013-07-25 16:22:00,
2013-07-25 11:33:00,76.0,68.0,-100.00,SW,215,5.0,7.0,74,0.00,,,-99.99,,2013-07-25 16:33:00,
2013-07-25 11:45:00,76.0,68.0,-100.00,SSW,210,6.0,8.0,74,0.00,,,-99.99,,2013-07-25 16:45:00,
2013-07-25 11:53:00,78.0,69.0,-100.00,SSW,195,6.0,10.0,73,0.00,,,-99.99,,2013-07-25 16:53:00,
2013-07-25 12:02:00,79.0,67.0,-100.00,SSW,210,9.0,14.0,67,0.00,,,-99.99,,2013-07-25 17:02:00,
2013-07-25 12:12:00,78.0,67.0,-100.00,SW,215,8.0,14.0,68,0.00,,,-99.99,,2013-07-25 17:12:00,
2013-07-25 12:22:00,78.0,68.0,-100.00,SSW,205,9.0,14.0,70,0.18,,,-99.99,,2013-07-25 17:22:00,
2013-07-25 12:32:00,79.0,69.0,-100.00,South,190,7.0,12.0,70,0.00,,,-99.99,,2013-07-25 17:32:00,
2013-07-25 12:43:00,80.0,69.0,-100.00,South,180,6.0,9.0,68,0.00,,,-99.99,,2013-07-25 17:43:00,
2013-07-25 13:02:00,80.0,67.0,-100.00,SSE,160,7.0,11.0,66,0.00,,,-99.99,,2013-07-25 18:02:00,
2013-07-25 13:12:00,79.0,68.0,-100.00,SW,220,4.0,9.0,70,0.17,,,-99.99,,2013-07-25 18:12:00,
2013-07-25 13:22:00,78.0,70.0,-100.00,SSE,150,2.0,6.0,76,0.00,,,-99.99,,2013-07-25 18:22:00,
2013-07-25 13:43:00,79.0,72.0,-100.00,South,175,6.0,9.0,77,0.00,,,-99.99,,2013-07-25 18:43:00,
2013-07-25 13:52:00,80.0,70.0,-100.00,South,170,9.0,12.0,71,0.00,,,-99.99,,2013-07-25 18:52:00,
2013-07-25 14:02:00,80.0,69.0,-100.00,South,190,9.0,14.0,68,0.00,,,-99.99,,2013-07-25 19:02:00,
2013-07-25 14:12:00,80.0,69.0,-100.00,SW,230,8.0,13.0,69,0.00,,,-99.99,,2013-07-25 19:12:00,
2013-07-25 14:22:00,80.0,69.0,-100.00,WSW,245,9.0,16.0,70,0.00,,,-99.99,,2013-07-25 19:22:00,
2013-07-25 14:33:00,80.0,69.0,-100.00,SW,230,7.0,17.0,68,0.00,,,-99.99,,2013-07-25 19:33:00,
2013-07-25 14:42:00,81.0,69.0,-100.00,SSW,210,9.0,13.0,67,0.00,,,-99.99,,2013-07-25 19:42:00,
2013-07-25 15:02:00,81.0,70.0,-100.00,SW,225,9.0,12.0,68,0.00,,,-99.99,,2013-07-25 20:02:00,
2013-07-25 15:12:00,81.0,69.0,-100.00,WSW,240,9.0,13.0,67,0.00,,,-99.99,,2013-07-25 20:12:00,
2013-07-25 15:22:00,80.0,69.0,-100.00,SW,230,11.0,15.0,68,0.00,,,-99.99,,2013-07-25 20:22:00,
2013-07-25 15:32:00,80.0,69.0,-100.00,SW,215,7.0,12.0,69,0.00,,,-99.99,,2013-07-25 20:32:00,
2013-07-25 15:43:00,80.0,70.0,-100.00,SW,235,8.0,11.0,70,0.00,,,-99.99,,2013-07-25 20:43:00,
2013-07-25 15:53:00,80.0,70.0,-100.00,WSW,240,7.0,12.0,71,0.00,,,-99.99,,2013-07-25 20:53:00,
2013-07-25 16:02:00,80.0,70.0,-100.00,SW,225,8.0,12.0,71,0.00,,,-99.99,,2013-07-25 21:02:00,
2013-07-25 16:12:00,79.0,69.0,-100.00,West,265,12.0,17.0,70,0.00,,,-99.99,,2013-07-25 21:12:00,
2013-07-25 16:22:00,77.0,65.0,-100.00,WSW,245,6.0,16.0,67,0.20,,,-99.99,,2013-07-25 21:22:00,
2013-07-25 16:32:00,76.0,67.0,-100.00,SW,220,7.0,11.0,73,0.00,,,-99.99,,2013-07-25 21:32:00,
2013-07-25 16:44:00,75.0,66.0,-100.00,SW,215,6.0,9.0,73,0.00,,,-99.99,,2013-07-25 21:44:00,
2013-07-25 16:52:00,75.0,66.0,-100.00,SW,220,6.0,10.0,73,0.00,,,-99.99,,2013-07-25 21:52:00,
2013-07-25 17:02:00,75.0,67.0,-100.00,South,190,6.0,9.0,77,0.00,,,-99.99,,2013-07-25 22:02:00,
2013-07-25 17:12:00,75.0,69.0,-100.00,SSW,205,9.0,14.0,82,0.00,,,-99.99,,2013-07-25 22:12:00,
2013-07-25 17:22:00,75.0,70.0,-100.00,SSW,210,7.0,14.0,82,0.00,,,-99.99,,2013-07-25 22:22:00,
2013-07-25 17:32:00,75.0,70.0,-100.00,SSW,210,9.0,15.0,84,0.00,,,-99.99,,2013-07-25 22:32:00,
2013-07-25 17:43:00,75.0,71.0,-100.00,SSW,205,9.0,14.0,85,0.00,,,-99.99,,2013-07-25 22:43:00,
2013-07-25 18:02:00,74.0,71.0,-100.00,SSW,210,8.0,12.0,88,0.00,,,-99.99,,2013-07-25 23:02:00,
2013-07-25 18:12:00,75.0,71.0,-100.00,SSW,200,11.0,17.0,89,0.00,,,-99.99,,2013-07-25 23:12:00,
2013-07-25 18:22:00,76.0,72.0,-100.00,SSW,195,9.0,15.0,89,0.00,,,-99.99,,2013-07-25 23:22:00,
2013-07-25 18:32:00,76.0,72.0,-100.00,SW,215,9.0,14.0,89,0.00,,,-99.99,,2013-07-25 23:32:00,
2013-07-25 18:43:00,77.0,72.0,-100.00,SSW,205,9.0,14.0,84,0.00,,,-99.99,,2013-07-25 23:43:00,
2013-07-25 18:52:00,76.0,71.0,-100.00,SSW,205,12.0,16.0,83,0.00,,,-99.99,,2013-07-25 23:52:00,
2013-07-25 19:02:00,75.0,70.0,-100.00,SW,230,10.0,15.0,83,0.00,,,-99.99,,2013-07-26 00:02:00,
2013-07-25 19:12:00,75.0,68.0,-100.00,SSW,205,9.0,18.0,78,0.00,,,-99.99,,2013-07-26 00:12:00,
2013-07-25 19:22:00,74.0,68.0,-100.00,SW,235,12.0,18.0,79,0.00,,,-99.99,,2013-07-26 00:22:00,
2013-07-25 19:32:00,74.0,67.0,-100.00,SW,220,11.0,16.0,79,0.00,,,-99.99,,2013-07-26 00:32:00,
2013-07-25 19:43:00,74.0,68.0,-100.00,SW,215,10.0,16.0,81,0.00,,,-99.99,,2013-07-26 00:43:00,
2013-07-25 19:52:00,74.0,68.0,-100.00,SW,220,6.0,13.0,82,0.00,,,-99.99,,2013-07-26 00:52:00,
2013-07-25 20:02:00,74.0,68.0,-100.00,SW,215,8.0,14.0,81,0.00,,,-99.99,,2013-07-26 01:02:00,
2013-07-25 20:12:00,73.0,67.0,-100.00,SSW,200,8.0,11.0,81,0.00,,,-99.99,,2013-07-26 01:12:00,
2013-07-25 20:22:00,73.0,67.0,-100.00,SW,220,7.0,12.0,83,0.00,,,-99.99,,2013-07-26 01:22:00,
2013-07-25 20:32:00,73.0,68.0,-100.00,SSW,210,6.0,12.0,83,0.00,,,-99.99,,2013-07-26 01:32:00,
2013-07-25 20:43:00,72.0,68.0,-100.00,SSW,200,7.0,11.0,84,0.00,,,-99.99,,2013-07-26 01:43:00,
2013-07-25 20:52:00,72.0,68.0,-100.00,SSW,200,7.0,11.0,85,0.00,,,-99.99,,2013-07-26 01:52:00,
2013-07-25 21:02:00,72.0,68.0,-100.00,SSW,210,6.0,11.0,86,0.00,,,-99.99,,2013-07-26 02:02:00,
2013-07-25 21:12:00,72.0,68.0,-100.00,SSW,205,4.0,7.0,87,0.00,,,-99.99,,2013-07-26 02:12:00,
2013-07-25 21:22:00,72.0,68.0,-100.00,SW,235,2.0,4.0,88,0.00,,,-99.99,,2013-07-26 02:22:00,
2013-07-25 21:32:00,72.0,68.0,-100.00,South,190,1.0,2.0,88,0.00,,,-99.99,,2013-07-26 02:32:00,
2013-07-25 21:43:00,72.0,69.0,-100.00,SSE,165,3.0,4.0,88,0.00,,,-99.99,,2013-07-26 02:43:00,
2013-07-25 21:52:00,72.0,69.0,-100.00,SE,135,2.0,4.0,88,0.00,,,-99.99,,2013-07-26 02:52:00,
2013-07-25 22:02:00,72.0,69.0,-100.00,SSE,160,3.0,4.0,90,0.00,,,-99.99,,2013-07-26 03:02:00,
2013-07-25 22:12:00,71.0,69.0,-100.00,SSW,195,3.0,4.0,91,0.13,,,-99.99,,2013-07-26 03:12:00,
2013-07-25 22:22:00,71.0,69.0,-100.00,South,175,2.0,4.0,93,0.25,,,-99.99,,2013-07-26 03:22:00,
2013-07-25 22:32:00,71.0,69.0,-100.00,SE,135,2.0,3.0,94,0.00,,,-99.99,,2013-07-26 03:32:00,
2013-07-25 22:43:00,71.0,69.0,-100.00,SE,135,2.0,3.0,94,0.00,,,-99.99,,2013-07-26 03:43:00,
2013-07-25 22:53:00,71.0,69.0,-100.00,SE,135,2.0,4.0,94,0.00,,,-99.99,,2013-07-26 03:53:00,
2013-07-25 23:02:00,71.0,69.0,-100.00,SE,130,2.0,3.0,94,0.00,,,-99.99,,2013-07-26 04:02:00,
2013-07-25 23:12:00,70.0,69.0,-100.00,South,170,2.0,4.0,94,0.00,,,-99.99,,2013-07-26 04:12:00,
2013-07-25 23:22:00,71.0,69.0,-100.00,South,175,4.0,7.0,94,0.00,,,-99.99,,2013-07-26 04:22:00,
2013-07-25 23:32:00,70.0,69.0,-100.00,South,180,6.0,7.0,94,0.00,,,-99.99,,2013-07-26 04:32:00,
2013-07-25 23:42:00,70.0,69.0,-100.00,South,185,6.0,7.0,95,0.00,,,-99.99,,2013-07-26 04:42:00,
2013-07-25 23:53:00,70.0,69.0,-100.00,South,185,6.0,7.0,95,0.00,,,-99.99,,2013-07-26 04:53:00,